sensor_id;sensor_type;location;lat;lon;timestamp;pressure;altitude;pressure_sealevel;temperature;humidity
41866;BME280;27539;43.222;27.558;2022-07-05T00:02:03;100519.94;;;20.58;100.00
41866;BME280;27539;43.222;27.558;2022-07-05T00:04:28;100527.06;;;20.55;100.00
41866;BME280;27539;43.222;27.558;2022-07-05T00:06:54;100525.06;;;20.42;100.00
41866;BME280;27539;43.222;27.558;2022-07-05T00:09:38;100527.25;;;20.45;100.00
41866;BME280;27539;43.222;27.558;2022-07-05T00:12:04;100516.25;;;20.29;100.00
41866;BME280;27539;43.222;27.558;2022-07-05T00:14:30;100527.03;;;20.27;100.00
41866;BME280;27539;43.222;27.558;2022-07-05T00:16:55;100525.78;;;20.47;100.00
41866;BME280;27539;43.222;27.558;2022-07-05T00:19:20;100513.53;;;20.38;100.00
41866;BME280;27539;43.222;27.558;2022-07-05T00:21:46;100530.59;;;20.47;100.00
41866;BME280;27539;43.222;27.558;2022-07-05T00:24:12;100534.34;;;20.42;100.00
41866;BME280;27539;43.222;27.558;2022-07-05T00:26:37;100533.81;;;20.40;100.00
41866;BME280;27539;43.222;27.558;2022-07-05T00:29:02;100543.13;;;20.41;100.00
41866;BME280;27539;43.222;27.558;2022-07-05T00:31:28;100537.06;;;20.34;100.00
41866;BME280;27539;43.222;27.558;2022-07-05T00:36:28;100497.47;;;19.78;100.00
41866;BME280;27539;43.222;27.558;2022-07-05T00:38:54;100514.72;;;19.44;100.00
41866;BME280;27539;43.222;27.558;2022-07-05T00:41:19;100500.00;;;19.28;100.00
41866;BME280;27539;43.222;27.558;2022-07-05T00:43:57;100465.13;;;19.24;100.00
41866;BME280;27539;43.222;27.558;2022-07-05T00:46:24;100517.91;;;19.56;100.00
41866;BME280;27539;43.222;27.558;2022-07-05T00:48:50;100520.91;;;19.79;100.00
41866;BME280;27539;43.222;27.558;2022-07-05T00:51:16;100528.78;;;19.96;100.00
41866;BME280;27539;43.222;27.558;2022-07-05T00:53:41;100535.78;;;19.98;100.00
41866;BME280;27539;43.222;27.558;2022-07-05T00:56:09;100527.44;;;20.07;100.00
41866;BME280;27539;43.222;27.558;2022-07-05T00:58:35;100524.81;;;20.11;100.00
41866;BME280;27539;43.222;27.558;2022-07-05T01:01:03;100518.00;;;19.98;100.00
41866;BME280;27539;43.222;27.558;2022-07-05T01:03:30;100516.34;;;19.97;100.00
41866;BME280;27539;43.222;27.558;2022-07-05T01:05:55;100528.28;;;20.07;100.00
41866;BME280;27539;43.222;27.558;2022-07-05T01:08:23;100515.56;;;19.91;100.00
41866;BME280;27539;43.222;27.558;2022-07-05T01:10:50;100529.09;;;19.94;100.00
41866;BME280;27539;43.222;27.558;2022-07-05T01:13:16;100527.09;;;19.95;100.00
41866;BME280;27539;43.222;27.558;2022-07-05T01:15:42;100525.66;;;19.97;100.00
41866;BME280;27539;43.222;27.558;2022-07-05T01:18:08;100522.69;;;19.89;100.00
41866;BME280;27539;43.222;27.558;2022-07-05T01:20:34;100516.09;;;19.79;100.00
41866;BME280;27539;43.222;27.558;2022-07-05T01:23:00;100511.00;;;19.81;100.00
41866;BME280;27539;43.222;27.558;2022-07-05T01:25:28;100520.50;;;19.85;100.00
41866;BME280;27539;43.222;27.558;2022-07-05T01:27:55;100476.84;;;19.64;100.00
41866;BME280;27539;43.222;27.558;2022-07-05T01:30:22;100519.25;;;19.92;100.00
41866;BME280;27539;43.222;27.558;2022-07-05T01:32:48;100511.41;;;19.89;100.00
41866;BME280;27539;43.222;27.558;2022-07-05T01:35:15;100531.78;;;19.85;100.00
41866;BME280;27539;43.222;27.558;2022-07-05T01:37:46;100517.56;;;19.77;100.00
41866;BME280;27539;43.222;27.558;2022-07-05T01:40:12;100506.66;;;19.70;100.00
41866;BME280;27539;43.222;27.558;2022-07-05T01:42:38;100511.78;;;19.68;100.00
41866;BME280;27539;43.222;27.558;2022-07-05T01:45:04;100514.50;;;19.73;100.00
41866;BME280;27539;43.222;27.558;2022-07-05T01:47:32;100518.00;;;19.65;100.00
41866;BME280;27539;43.222;27.558;2022-07-05T01:50:02;100525.19;;;19.57;100.00
41866;BME280;27539;43.222;27.558;2022-07-05T01:52:29;100516.25;;;19.36;100.00
41866;BME280;27539;43.222;27.558;2022-07-05T01:54:57;100523.34;;;19.15;100.00
41866;BME280;27539;43.222;27.558;2022-07-05T01:57:23;100516.66;;;19.11;100.00
41866;BME280;27539;43.222;27.558;2022-07-05T01:59:48;100515.59;;;19.07;100.00
41866;BME280;27539;43.222;27.558;2022-07-05T02:02:14;100509.56;;;19.13;100.00
41866;BME280;27539;43.222;27.558;2022-07-05T02:04:39;100515.28;;;19.27;100.00
41866;BME280;27539;43.222;27.558;2022-07-05T02:07:07;100514.91;;;19.34;100.00
41866;BME280;27539;43.222;27.558;2022-07-05T02:09:33;100516.34;;;19.31;100.00
41866;BME280;27539;43.222;27.558;2022-07-05T02:12:00;100519.84;;;19.23;100.00
41866;BME280;27539;43.222;27.558;2022-07-05T02:14:26;100500.75;;;19.01;100.00
41866;BME280;27539;43.222;27.558;2022-07-05T02:16:52;100529.09;;;19.10;100.00
41866;BME280;27539;43.222;27.558;2022-07-05T02:19:18;100530.06;;;18.81;100.00
41866;BME280;27539;43.222;27.558;2022-07-05T02:21:43;100524.66;;;18.61;100.00
41866;BME280;27539;43.222;27.558;2022-07-05T02:24:09;100523.94;;;18.74;100.00
41866;BME280;27539;43.222;27.558;2022-07-05T02:26:34;100528.50;;;18.70;100.00
41866;BME280;27539;43.222;27.558;2022-07-05T02:29:02;100535.56;;;18.91;100.00
41866;BME280;27539;43.222;27.558;2022-07-05T02:31:28;100526.84;;;18.88;100.00
41866;BME280;27539;43.222;27.558;2022-07-05T02:33:53;100531.97;;;18.86;100.00
41866;BME280;27539;43.222;27.558;2022-07-05T02:36:19;100527.75;;;18.83;100.00
41866;BME280;27539;43.222;27.558;2022-07-05T02:38:45;100535.56;;;18.91;100.00
41866;BME280;27539;43.222;27.558;2022-07-05T02:41:11;100535.56;;;18.91;100.00
41866;BME280;27539;43.222;27.558;2022-07-05T02:43:38;100528.94;;;19.01;100.00
41866;BME280;27539;43.222;27.558;2022-07-05T02:46:04;100533.66;;;18.87;100.00
41866;BME280;27539;43.222;27.558;2022-07-05T02:48:30;100529.25;;;18.99;100.00
41866;BME280;27539;43.222;27.558;2022-07-05T02:50:57;100531.28;;;19.13;100.00
41866;BME280;27539;43.222;27.558;2022-07-05T02:53:23;100540.91;;;19.12;100.00
41866;BME280;27539;43.222;27.558;2022-07-05T02:55:49;100524.50;;;18.95;100.00
41866;BME280;27539;43.222;27.558;2022-07-05T02:58:15;100533.81;;;19.14;100.00
41866;BME280;27539;43.222;27.558;2022-07-05T03:00:43;100543.31;;;19.18;100.00
41866;BME280;27539;43.222;27.558;2022-07-05T03:03:08;100546.75;;;19.15;100.00
41866;BME280;27539;43.222;27.558;2022-07-05T03:05:34;100543.09;;;19.15;100.00
41866;BME280;27539;43.222;27.558;2022-07-05T03:07:59;100534.63;;;19.15;100.00
41866;BME280;27539;43.222;27.558;2022-07-05T03:10:25;100540.94;;;19.26;100.00
41866;BME280;27539;43.222;27.558;2022-07-05T03:20:36;100510.34;;;19.19;100.00
41866;BME280;27539;43.222;27.558;2022-07-05T03:23:01;100514.81;;;19.20;100.00
41866;BME280;27539;43.222;27.558;2022-07-05T03:25:27;100501.00;;;19.18;100.00
41866;BME280;27539;43.222;27.558;2022-07-05T03:27:52;100454.41;;;18.88;100.00
41866;BME280;27539;43.222;27.558;2022-07-05T03:30:18;100473.31;;;19.07;100.00
41866;BME280;27539;43.222;27.558;2022-07-05T03:32:43;100522.66;;;19.42;100.00
41866;BME280;27539;43.222;27.558;2022-07-05T03:35:09;100501.13;;;19.46;100.00
41866;BME280;27539;43.222;27.558;2022-07-05T03:37:35;100492.44;;;19.42;100.00
41866;BME280;27539;43.222;27.558;2022-07-05T03:40:00;100480.19;;;19.33;100.00
41866;BME280;27539;43.222;27.558;2022-07-05T03:42:26;100476.56;;;19.14;100.00
41866;BME280;27539;43.222;27.558;2022-07-05T03:50:03;100466.59;;;19.35;100.00
41866;BME280;27539;43.222;27.558;2022-07-05T03:52:29;100555.25;;;20.00;100.00
41866;BME280;27539;43.222;27.558;2022-07-05T03:54:55;100543.75;;;20.10;100.00
41866;BME280;27539;43.222;27.558;2022-07-05T03:57:21;100520.81;;;19.98;100.00
41866;BME280;27539;43.222;27.558;2022-07-05T03:59:46;100483.88;;;19.80;100.00
41866;BME280;27539;43.222;27.558;2022-07-05T04:02:12;100522.59;;;19.94;100.00
41866;BME280;27539;43.222;27.558;2022-07-05T04:04:38;100513.00;;;19.95;100.00
41866;BME280;27539;43.222;27.558;2022-07-05T04:07:03;100474.78;;;19.83;100.00
41866;BME280;27539;43.222;27.558;2022-07-05T04:09:29;100521.59;;;20.17;100.00
41866;BME280;27539;43.222;27.558;2022-07-05T04:11:54;100495.44;;;20.12;100.00
41866;BME280;27539;43.222;27.558;2022-07-05T04:14:20;100546.69;;;20.46;100.00
41866;BME280;27539;43.222;27.558;2022-07-05T04:16:45;100538.13;;;20.52;100.00
41866;BME280;27539;43.222;27.558;2022-07-05T04:19:11;100549.22;;;20.76;100.00
41866;BME280;27539;43.222;27.558;2022-07-05T04:21:36;100529.31;;;20.81;100.00
41866;BME280;27539;43.222;27.558;2022-07-05T04:24:02;100521.56;;;20.86;100.00
41866;BME280;27539;43.222;27.558;2022-07-05T04:26:28;100545.38;;;21.22;100.00
41866;BME280;27539;43.222;27.558;2022-07-05T04:28:53;100545.41;;;21.30;100.00
41866;BME280;27539;43.222;27.558;2022-07-05T04:31:19;100546.25;;;21.45;100.00
41866;BME280;27539;43.222;27.558;2022-07-05T04:33:44;100541.94;;;21.47;100.00
41866;BME280;27539;43.222;27.558;2022-07-05T04:36:09;100535.19;;;21.57;100.00
41866;BME280;27539;43.222;27.558;2022-07-05T04:38:35;100520.69;;;21.58;100.00
41866;BME280;27539;43.222;27.558;2022-07-05T04:41:00;100552.19;;;21.88;100.00
41866;BME280;27539;43.222;27.558;2022-07-05T04:43:26;100542.50;;;21.81;100.00
41866;BME280;27539;43.222;27.558;2022-07-05T04:45:51;100555.59;;;21.99;100.00
41866;BME280;27539;43.222;27.558;2022-07-05T04:48:17;100544.31;;;22.08;100.00
41866;BME280;27539;43.222;27.558;2022-07-05T04:50:42;100551.00;;;22.12;100.00
41866;BME280;27539;43.222;27.558;2022-07-05T04:53:08;100543.53;;;22.16;100.00
41866;BME280;27539;43.222;27.558;2022-07-05T04:55:33;100551.75;;;22.26;100.00
41866;BME280;27539;43.222;27.558;2022-07-05T04:57:58;100545.94;;;22.31;100.00
41866;BME280;27539;43.222;27.558;2022-07-05T05:00:24;100543.41;;;22.61;100.00
41866;BME280;27539;43.222;27.558;2022-07-05T05:02:49;100546.59;;;22.77;100.00
41866;BME280;27539;43.222;27.558;2022-07-05T05:05:15;100548.47;;;22.90;100.00
41866;BME280;27539;43.222;27.558;2022-07-05T05:07:44;100549.53;;;23.03;100.00
41866;BME280;27539;43.222;27.558;2022-07-05T05:10:11;100550.88;;;23.23;100.00
41866;BME280;27539;43.222;27.558;2022-07-05T05:12:36;100549.38;;;23.43;100.00
41866;BME280;27539;43.222;27.558;2022-07-05T05:15:02;100541.22;;;23.33;100.00
41866;BME280;27539;43.222;27.558;2022-07-05T05:17:38;100553.22;;;23.56;100.00
41866;BME280;27539;43.222;27.558;2022-07-05T05:20:11;100555.06;;;23.78;100.00
41866;BME280;27539;43.222;27.558;2022-07-05T05:22:37;100547.88;;;23.80;100.00
41866;BME280;27539;43.222;27.558;2022-07-05T05:25:03;100544.53;;;23.52;100.00
41866;BME280;27539;43.222;27.558;2022-07-05T05:27:29;100551.88;;;23.79;100.00
41866;BME280;27539;43.222;27.558;2022-07-05T05:29:54;100535.47;;;23.93;100.00
41866;BME280;27539;43.222;27.558;2022-07-05T05:32:20;100549.06;;;24.26;100.00
41866;BME280;27539;43.222;27.558;2022-07-05T05:34:45;100543.66;;;24.42;100.00
41866;BME280;27539;43.222;27.558;2022-07-05T05:37:11;100534.47;;;24.36;100.00
41866;BME280;27539;43.222;27.558;2022-07-05T05:39:36;100544.16;;;24.53;100.00
41866;BME280;27539;43.222;27.558;2022-07-05T05:42:02;100538.53;;;24.65;100.00
41866;BME280;27539;43.222;27.558;2022-07-05T05:44:27;100544.28;;;24.86;100.00
41866;BME280;27539;43.222;27.558;2022-07-05T05:46:53;100545.75;;;24.92;100.00
41866;BME280;27539;43.222;27.558;2022-07-05T05:49:18;100549.94;;;25.16;100.00
41866;BME280;27539;43.222;27.558;2022-07-05T05:51:44;100545.53;;;25.27;100.00
41866;BME280;27539;43.222;27.558;2022-07-05T05:54:09;100542.97;;;25.34;100.00
41866;BME280;27539;43.222;27.558;2022-07-05T05:56:35;100538.38;;;25.21;100.00
41866;BME280;27539;43.222;27.558;2022-07-05T05:59:00;100525.16;;;25.37;99.34
41866;BME280;27539;43.222;27.558;2022-07-05T06:01:26;100537.22;;;25.76;100.00
41866;BME280;27539;43.222;27.558;2022-07-05T06:03:51;100536.69;;;25.95;100.00
41866;BME280;27539;43.222;27.558;2022-07-05T06:06:17;100535.91;;;26.07;96.63
41866;BME280;27539;43.222;27.558;2022-07-05T06:08:42;100527.72;;;26.30;97.45
41866;BME280;27539;43.222;27.558;2022-07-05T06:11:08;100543.06;;;26.50;95.17
41866;BME280;27539;43.222;27.558;2022-07-05T06:13:33;100537.16;;;26.67;95.11
41866;BME280;27539;43.222;27.558;2022-07-05T06:15:59;100533.81;;;26.78;92.70
41866;BME280;27539;43.222;27.558;2022-07-05T06:18:24;100551.78;;;26.78;89.41
41866;BME280;27539;43.222;27.558;2022-07-05T06:20:50;100541.03;;;26.14;92.50
41866;BME280;27539;43.222;27.558;2022-07-05T06:23:15;100543.66;;;26.19;93.46
41866;BME280;27539;43.222;27.558;2022-07-05T06:25:41;100544.13;;;26.45;98.81
41866;BME280;27539;43.222;27.558;2022-07-05T06:28:07;100545.00;;;26.58;91.21
41866;BME280;27539;43.222;27.558;2022-07-05T06:30:36;100542.38;;;26.78;91.53
41866;BME280;27539;43.222;27.558;2022-07-05T06:33:02;100538.31;;;27.03;89.93
41866;BME280;27539;43.222;27.558;2022-07-05T06:35:28;100542.56;;;27.34;86.62
41866;BME280;27539;43.222;27.558;2022-07-05T06:37:58;100537.84;;;27.54;84.23
41866;BME280;27539;43.222;27.558;2022-07-05T06:40:26;100539.47;;;27.67;85.01
41866;BME280;27539;43.222;27.558;2022-07-05T06:42:53;100542.03;;;27.85;81.66
41866;BME280;27539;43.222;27.558;2022-07-05T06:45:20;100545.13;;;28.08;76.12
41866;BME280;27539;43.222;27.558;2022-07-05T06:47:53;100542.44;;;28.15;72.89
41866;BME280;27539;43.222;27.558;2022-07-05T06:50:19;100536.34;;;28.16;69.93
41866;BME280;27539;43.222;27.558;2022-07-05T06:52:44;100541.78;;;28.06;67.14
41866;BME280;27539;43.222;27.558;2022-07-05T06:55:10;100536.63;;;28.11;71.71
41866;BME280;27539;43.222;27.558;2022-07-05T06:57:35;100535.56;;;28.32;73.46
41866;BME280;27539;43.222;27.558;2022-07-05T07:00:02;100519.56;;;28.15;75.36
41866;BME280;27539;43.222;27.558;2022-07-05T07:02:28;100532.44;;;28.53;70.17
41866;BME280;27539;43.222;27.558;2022-07-05T07:04:53;100539.06;;;28.73;58.13
41866;BME280;27539;43.222;27.558;2022-07-05T07:07:19;100533.28;;;28.89;59.59
41866;BME280;27539;43.222;27.558;2022-07-05T07:10:03;100526.81;;;28.92;63.54
41866;BME280;27539;43.222;27.558;2022-07-05T07:12:29;100526.38;;;28.90;49.19
41866;BME280;27539;43.222;27.558;2022-07-05T07:14:55;100530.38;;;29.20;48.56
41866;BME280;27539;43.222;27.558;2022-07-05T07:17:22;100529.41;;;29.32;43.27
41866;BME280;27539;43.222;27.558;2022-07-05T07:19:48;100531.84;;;29.49;43.00
41866;BME280;27539;43.222;27.558;2022-07-05T07:22:13;100526.31;;;29.21;42.16
41866;BME280;27539;43.222;27.558;2022-07-05T07:24:39;100523.75;;;29.55;44.27
41866;BME280;27539;43.222;27.558;2022-07-05T07:27:04;100531.38;;;29.67;43.45
41866;BME280;27539;43.222;27.558;2022-07-05T07:29:31;100533.25;;;29.98;45.16
41866;BME280;27539;43.222;27.558;2022-07-05T07:31:58;100543.91;;;29.78;39.83
41866;BME280;27539;43.222;27.558;2022-07-05T07:34:24;100546.06;;;29.26;38.23
41866;BME280;27539;43.222;27.558;2022-07-05T07:36:50;100519.91;;;28.93;41.60
41866;BME280;27539;43.222;27.558;2022-07-05T07:39:16;100544.00;;;29.07;40.78
41866;BME280;27539;43.222;27.558;2022-07-05T07:41:41;100545.03;;;29.35;45.22
41866;BME280;27539;43.222;27.558;2022-07-05T07:44:07;100554.94;;;29.21;42.88
41866;BME280;27539;43.222;27.558;2022-07-05T07:46:32;100548.59;;;29.67;45.26
41866;BME280;27539;43.222;27.558;2022-07-05T07:48:58;100549.03;;;29.88;43.83
41866;BME280;27539;43.222;27.558;2022-07-05T07:51:24;100544.47;;;30.07;43.72
41866;BME280;27539;43.222;27.558;2022-07-05T07:53:49;100560.97;;;30.33;45.23
41866;BME280;27539;43.222;27.558;2022-07-05T07:56:15;100512.00;;;30.22;45.54
41866;BME280;27539;43.222;27.558;2022-07-05T07:58:41;100546.47;;;30.72;48.02
41866;BME280;27539;43.222;27.558;2022-07-05T08:01:06;100542.03;;;30.51;42.93
41866;BME280;27539;43.222;27.558;2022-07-05T08:03:36;100546.63;;;30.33;41.51
41866;BME280;27539;43.222;27.558;2022-07-05T08:06:02;100548.69;;;30.13;42.33
41866;BME280;27539;43.222;27.558;2022-07-05T08:08:28;100534.84;;;29.96;44.87
41866;BME280;27539;43.222;27.558;2022-07-05T08:10:53;100550.06;;;30.42;45.59
41866;BME280;27539;43.222;27.558;2022-07-05T08:13:19;100560.59;;;30.34;45.66
41866;BME280;27539;43.222;27.558;2022-07-05T08:15:44;100555.06;;;30.03;43.83
41866;BME280;27539;43.222;27.558;2022-07-05T08:18:10;100531.78;;;30.27;45.12
41866;BME280;27539;43.222;27.558;2022-07-05T08:20:54;100550.59;;;30.48;44.14
41866;BME280;27539;43.222;27.558;2022-07-05T08:23:38;100553.66;;;30.16;44.94
41866;BME280;27539;43.222;27.558;2022-07-05T08:26:03;100554.47;;;30.36;49.36
41866;BME280;27539;43.222;27.558;2022-07-05T08:28:28;100557.13;;;30.71;41.63
41866;BME280;27539;43.222;27.558;2022-07-05T08:30:54;100558.81;;;30.72;41.56
41866;BME280;27539;43.222;27.558;2022-07-05T08:33:19;100557.19;;;30.98;46.13
41866;BME280;27539;43.222;27.558;2022-07-05T08:35:45;100550.88;;;31.15;46.00
41866;BME280;27539;43.222;27.558;2022-07-05T08:38:10;100556.22;;;31.17;45.03
41866;BME280;27539;43.222;27.558;2022-07-05T08:40:39;100549.28;;;30.91;41.96
41866;BME280;27539;43.222;27.558;2022-07-05T08:43:07;100559.44;;;30.62;42.74
41866;BME280;27539;43.222;27.558;2022-07-05T08:45:33;100560.28;;;30.63;43.01
41866;BME280;27539;43.222;27.558;2022-07-05T08:48:00;100531.50;;;30.59;41.98
41866;BME280;27539;43.222;27.558;2022-07-05T08:50:26;100550.28;;;31.03;42.87
41866;BME280;27539;43.222;27.558;2022-07-05T08:52:52;100550.84;;;31.42;42.36
41866;BME280;27539;43.222;27.558;2022-07-05T08:55:18;100527.56;;;31.51;42.91
41866;BME280;27539;43.222;27.558;2022-07-05T08:57:44;100545.06;;;31.72;46.90
41866;BME280;27539;43.222;27.558;2022-07-05T09:00:11;100554.88;;;31.98;40.34
41866;BME280;27539;43.222;27.558;2022-07-05T09:02:36;100519.81;;;31.55;40.42
41866;BME280;27539;43.222;27.558;2022-07-05T09:05:03;100537.13;;;31.32;40.15
41866;BME280;27539;43.222;27.558;2022-07-05T09:07:35;100549.28;;;30.91;40.95
41866;BME280;27539;43.222;27.558;2022-07-05T09:10:03;100552.47;;;31.13;41.21
41866;BME280;27539;43.222;27.558;2022-07-05T09:12:30;100546.94;;;31.57;43.38
41866;BME280;27539;43.222;27.558;2022-07-05T09:14:56;100552.16;;;31.78;40.96
41866;BME280;27539;43.222;27.558;2022-07-05T09:17:23;100542.28;;;31.79;41.46
41866;BME280;27539;43.222;27.558;2022-07-05T09:20:10;100543.47;;;31.75;40.99
41866;BME280;27539;43.222;27.558;2022-07-05T09:22:49;100538.69;;;31.86;40.51
41866;BME280;27539;43.222;27.558;2022-07-05T09:25:29;100537.75;;;32.12;42.52
41866;BME280;27539;43.222;27.558;2022-07-05T09:28:00;100520.00;;;32.06;43.46
41866;BME280;27539;43.222;27.558;2022-07-05T09:30:28;100534.44;;;32.10;41.80
41866;BME280;27539;43.222;27.558;2022-07-05T09:33:22;100523.00;;;32.17;40.08
41866;BME280;27539;43.222;27.558;2022-07-05T09:35:55;100511.16;;;32.26;40.87
41866;BME280;27539;43.222;27.558;2022-07-05T09:38:25;100519.28;;;32.58;44.66
41866;BME280;27539;43.222;27.558;2022-07-05T09:40:53;100508.38;;;32.37;39.19
41866;BME280;27539;43.222;27.558;2022-07-05T09:43:28;100503.34;;;32.23;40.61
41866;BME280;27539;43.222;27.558;2022-07-05T09:45:59;100478.72;;;31.54;39.48
41866;BME280;27539;43.222;27.558;2022-07-05T09:48:29;100484.41;;;31.84;41.64
41866;BME280;27539;43.222;27.558;2022-07-05T09:51:08;100504.22;;;32.31;39.28
41866;BME280;27539;43.222;27.558;2022-07-05T09:53:50;100508.38;;;32.85;40.60
41866;BME280;27539;43.222;27.558;2022-07-05T09:56:15;100499.66;;;32.78;37.65
41866;BME280;27539;43.222;27.558;2022-07-05T09:58:42;100509.88;;;32.64;38.51
41866;BME280;27539;43.222;27.558;2022-07-05T10:01:27;100502.97;;;32.76;39.87
41866;BME280;27539;43.222;27.558;2022-07-05T10:03:58;100504.81;;;33.02;41.30
41866;BME280;27539;43.222;27.558;2022-07-05T10:06:25;100509.38;;;33.07;37.84
41866;BME280;27539;43.222;27.558;2022-07-05T10:08:52;100511.41;;;32.10;39.41
41866;BME280;27539;43.222;27.558;2022-07-05T10:11:18;100513.44;;;31.72;38.98
41866;BME280;27539;43.222;27.558;2022-07-05T10:13:48;100495.56;;;31.90;38.75
41866;BME280;27539;43.222;27.558;2022-07-05T10:16:15;100500.03;;;32.24;39.63
41866;BME280;27539;43.222;27.558;2022-07-05T10:18:43;100482.69;;;32.14;38.60
41866;BME280;27539;43.222;27.558;2022-07-05T10:21:14;100504.84;;;32.51;40.04
41866;BME280;27539;43.222;27.558;2022-07-05T10:23:47;100497.22;;;32.80;40.80
41866;BME280;27539;43.222;27.558;2022-07-05T10:26:15;100483.25;;;32.82;40.26
41866;BME280;27539;43.222;27.558;2022-07-05T10:28:45;100489.88;;;32.38;39.53
41866;BME280;27539;43.222;27.558;2022-07-05T10:31:14;100490.19;;;32.25;39.74
41866;BME280;27539;43.222;27.558;2022-07-05T10:33:40;100482.69;;;32.62;41.12
41866;BME280;27539;43.222;27.558;2022-07-05T10:36:07;100484.28;;;33.18;42.49
41866;BME280;27539;43.222;27.558;2022-07-05T10:38:37;100483.19;;;33.44;41.25
41866;BME280;27539;43.222;27.558;2022-07-05T10:41:06;100479.56;;;33.65;41.82
41866;BME280;27539;43.222;27.558;2022-07-05T10:43:32;100491.53;;;33.64;40.16
41866;BME280;27539;43.222;27.558;2022-07-05T10:45:58;100487.41;;;33.61;40.93
41866;BME280;27539;43.222;27.558;2022-07-05T10:48:25;100480.88;;;33.82;40.63
41866;BME280;27539;43.222;27.558;2022-07-05T10:50:52;100449.94;;;33.79;41.70
41866;BME280;27539;43.222;27.558;2022-07-05T10:53:18;100476.41;;;34.28;40.47
41866;BME280;27539;43.222;27.558;2022-07-05T10:58:36;100450.38;;;33.85;40.31
41866;BME280;27539;43.222;27.558;2022-07-05T11:03:47;100438.03;;;34.02;40.47
41866;BME280;27539;43.222;27.558;2022-07-05T11:06:26;100455.41;;;34.24;41.63
41866;BME280;27539;43.222;27.558;2022-07-05T11:11:41;100465.72;;;34.64;40.46
41866;BME280;27539;43.222;27.558;2022-07-05T11:16:45;100444.19;;;33.93;39.62
41866;BME280;27539;43.222;27.558;2022-07-05T11:21:39;100452.50;;;34.24;41.10
41866;BME280;27539;43.222;27.558;2022-07-05T11:24:28;100464.06;;;34.16;42.99
41866;BME280;27539;43.222;27.558;2022-07-05T11:26:58;100436.81;;;34.35;41.60
41866;BME280;27539;43.222;27.558;2022-07-05T11:32:19;100453.72;;;34.76;40.60
41866;BME280;27539;43.222;27.558;2022-07-05T11:34:47;100449.16;;;34.75;42.77
41866;BME280;27539;43.222;27.558;2022-07-05T11:39:45;100457.03;;;34.25;41.62
41866;BME280;27539;43.222;27.558;2022-07-05T11:42:21;100448.34;;;34.57;40.81
41866;BME280;27539;43.222;27.558;2022-07-05T11:44:50;100452.91;;;34.26;41.47
41866;BME280;27539;43.222;27.558;2022-07-05T11:47:19;100448.38;;;34.32;40.55
41866;BME280;27539;43.222;27.558;2022-07-05T11:49:55;100418.66;;;34.46;41.91
41866;BME280;27539;43.222;27.558;2022-07-05T11:52:29;100435.94;;;34.78;40.92
41866;BME280;27539;43.222;27.558;2022-07-05T11:54:56;100415.75;;;34.53;38.38
41866;BME280;27539;43.222;27.558;2022-07-05T11:57:22;100433.09;;;34.35;38.73
41866;BME280;27539;43.222;27.558;2022-07-05T11:59:49;100399.69;;;34.45;38.66
41866;BME280;27539;43.222;27.558;2022-07-05T12:02:15;100426.91;;;34.47;38.95
41866;BME280;27539;43.222;27.558;2022-07-05T12:04:40;100427.69;;;34.80;39.02
41866;BME280;27539;43.222;27.558;2022-07-05T12:07:06;100424.38;;;34.78;40.16
41866;BME280;27539;43.222;27.558;2022-07-05T12:09:33;100419.34;;;35.07;37.79
41866;BME280;27539;43.222;27.558;2022-07-05T12:12:18;100433.81;;;35.14;38.30
41866;BME280;27539;43.222;27.558;2022-07-05T12:15:03;100421.84;;;35.09;39.26
41866;BME280;27539;43.222;27.558;2022-07-05T12:17:28;100426.81;;;35.12;39.84
41866;BME280;27539;43.222;27.558;2022-07-05T12:19:54;100416.47;;;35.03;38.63
41866;BME280;27539;43.222;27.558;2022-07-05T12:22:42;100433.41;;;35.05;40.62
41866;BME280;27539;43.222;27.558;2022-07-05T12:25:12;100426.00;;;34.90;39.16
41866;BME280;27539;43.222;27.558;2022-07-05T12:27:40;100407.88;;;34.82;38.36
41866;BME280;27539;43.222;27.558;2022-07-05T12:30:07;100425.13;;;35.07;38.39
41866;BME280;27539;43.222;27.558;2022-07-05T12:32:56;100431.06;;;34.14;38.95
41866;BME280;27539;43.222;27.558;2022-07-05T12:38:01;100419.91;;;34.45;42.25
41866;BME280;27539;43.222;27.558;2022-07-05T12:40:27;100420.72;;;34.63;39.29
41866;BME280;27539;43.222;27.558;2022-07-05T12:43:07;100427.69;;;34.80;40.20
41866;BME280;27539;43.222;27.558;2022-07-05T12:45:33;100413.28;;;34.66;38.27
41866;BME280;27539;43.222;27.558;2022-07-05T12:48:01;100405.47;;;34.16;38.73
41866;BME280;27539;43.222;27.558;2022-07-05T12:50:30;100393.09;;;34.37;39.80
41866;BME280;27539;43.222;27.558;2022-07-05T12:53:10;100419.91;;;34.59;39.03
41866;BME280;27539;43.222;27.558;2022-07-05T12:56:05;100418.59;;;33.56;38.73
41866;BME280;27539;43.222;27.558;2022-07-05T12:58:50;100406.25;;;33.77;41.01
41866;BME280;27539;43.222;27.558;2022-07-05T13:01:42;100398.03;;;33.90;39.45
41866;BME280;27539;43.222;27.558;2022-07-05T13:04:09;100407.94;;;34.28;40.46
41866;BME280;27539;43.222;27.558;2022-07-05T13:09:05;100408.75;;;34.50;41.26
41866;BME280;27539;43.222;27.558;2022-07-05T13:11:31;100421.94;;;34.55;39.17
41866;BME280;27539;43.222;27.558;2022-07-05T13:13:57;100409.59;;;34.33;39.13
41866;BME280;27539;43.222;27.558;2022-07-05T13:16:22;100404.59;;;33.62;40.26
41866;BME280;27539;43.222;27.558;2022-07-05T13:18:48;100410.41;;;32.85;40.57